Time;durP1;ratioP1;P1;durP2;ratioP2;P2;SDS_P1;SDS_P2;PMS_P1;PMS_P2;Temp;Humidity;BMP_temperature;BMP_pressure;BME280_temperature;BME280_humidity;BME280_pressure;Samples;Min_cycle;Max_cycle;Signal;HPM_P1;HPM_P2
2022/03/12 06:36:22;;;;;;;;;;;;;;;5.39;93.89;99417.94;5056265;23;19979;-66
2022/03/12 06:38:49;;;;;;;;;;;;;;;5.47;93.97;99442.03;4843072;29;19987;-66
2022/03/12 06:41:20;;;;;;;;;;;;;;;5.67;91.83;99426.56;4844838;29;19953;-66
2022/03/12 06:43:48;;;;;;;;;;;;;;;5.67;93.98;99432.13;4840900;29;19956;-66
2022/03/12 06:46:16;;;;;;;;;;;;;;;5.63;94.42;99434.75;4841425;29;19957;-66
2022/03/12 06:48:44;;;;;;;;;;;;;;;5.58;90.34;99439.66;4844534;29;20336;-66
2022/03/12 06:51:13;;;;;;;;;;;;;;;5.63;92.87;99436.69;4844478;29;19949;-66
2022/03/12 06:53:43;;;;;;;;;;;;;;;5.54;96.24;99439.53;4844318;29;19957;-65
2022/03/12 06:56:11;;;;;;;;;;;;;;;5.29;94.24;99444.09;4828493;29;19953;-65
2022/03/12 06:58:38;;;;;;;;;;;;;;;5.37;97.09;99441.63;4843943;29;19980;-66
2022/03/12 07:01:06;;;;;;;;;;;;;;;5.74;94.97;99444.31;4844090;29;19953;-66
2022/03/12 07:03:33;;;;;;;;;;;;;;;5.71;93.13;99447.75;4843989;29;19949;-65
2022/03/12 07:06:01;;;;;;;;;;;;;;;6.04;93.17;99452.59;4842762;29;20379;-66
2022/03/12 07:08:28;;;;;;;;;;;;;;;6.06;91.42;99453.88;4841562;29;19957;-66
2022/03/12 07:10:56;;;;;;;;;;;;;;;6.73;91.29;99459.06;4842288;29;19971;-66
2022/03/12 07:13:23;;;;;;;;;;;;;;;7.74;84.93;99460.00;4843812;29;19949;-66
2022/03/12 07:15:51;;;;;;;;;;;;;;;8.15;80.98;99467.19;4844139;29;19963;-66
2022/03/12 07:18:18;;;;;;;;;;;;;;;8.96;75.48;99469.50;4844293;29;20296;-68
2022/03/12 07:20:46;;;;;;;;;;;;;;;9.75;73.26;99474.66;4847212;29;19963;-68
2022/03/12 07:23:13;;;;;;;;;;;;;;;9.78;70.84;99478.72;4847116;29;19958;-67
2022/03/12 07:25:40;;;;;;;;;;;;;;;10.10;69.34;99476.63;4846237;29;20251;-67
2022/03/12 07:28:10;;;;;;;;;;;;;;;9.40;71.27;99490.56;4853586;29;20266;-67
2022/03/12 07:30:37;;;;;;;;;;;;;;;8.92;74.14;99488.94;4834239;29;19952;-67
2022/03/12 07:33:04;;;;;;;;;;;;;;;8.83;78.77;99487.44;4844448;29;19951;-67
2022/03/12 07:35:32;;;;;;;;;;;;;;;8.55;83.19;99487.50;4853229;29;19989;-66
2022/03/12 07:37:59;;;;;;;;;;;;;;;8.04;81.72;99493.94;4865765;29;19978;-66
2022/03/12 07:40:27;;;;;;;;;;;;;;;8.11;79.67;99494.97;4865140;29;19949;-66
2022/03/12 07:42:55;;;;;;;;;;;;;;;6.99;81.50;99495.69;4865653;29;20243;-66
2022/03/12 07:45:24;;;;;;;;;;;;;;;7.55;82.38;99499.59;4858497;29;19955;-66
2022/03/12 07:47:52;;;;;;;;;;;;;;;7.38;82.56;99499.00;4847862;29;19958;-66
2022/03/12 07:50:19;;;;;;;;;;;;;;;7.02;86.08;99514.47;4844364;29;19956;-66
2022/03/12 07:52:47;;;;;;;;;;;;;;;6.99;88.00;99506.81;4846895;29;20359;-66
2022/03/12 07:55:16;;;;;;;;;;;;;;;6.93;86.35;99497.09;4846614;29;19957;-66
2022/03/12 07:57:44;;;;;;;;;;;;;;;7.24;85.09;99500.13;4846029;29;19971;-66
2022/03/12 08:00:12;;;;;;;;;;;;;;;7.21;82.90;99514.75;4845741;29;19961;-67
2022/03/12 08:02:41;;;;;;;;;;;;;;;6.86;84.48;99499.63;4830745;29;19946;-67
2022/03/12 08:05:08;;;;;;;;;;;;;;;7.21;84.72;99503.59;4846259;29;19949;-67
2022/03/12 08:07:37;;;;;;;;;;;;;;;7.04;85.62;99509.38;4828790;29;19959;-67
2022/03/12 08:10:05;;;;;;;;;;;;;;;6.01;92.16;99506.00;4843444;29;19950;-66
2022/03/12 08:12:35;;;;;;;;;;;;;;;6.41;90.24;99513.50;4845252;29;19957;-66
2022/03/12 08:15:08;;;;;;;;;;;;;;;6.73;92.69;99514.66;4842022;29;19956;-66
2022/03/12 08:17:36;;;;;;;;;;;;;;;6.18;93.65;99500.31;4843046;29;19955;-66
2022/03/12 08:20:05;;;;;;;;;;;;;;;6.15;96.15;99501.81;4844226;29;19965;-66
2022/03/12 08:22:32;;;;;;;;;;;;;;;5.67;100.00;99507.03;4846696;29;19960;-66
2022/03/12 08:24:59;;;;;;;;;;;;;;;5.85;100.00;99501.06;4843355;29;19958;-66
2022/03/12 08:27:29;;;;;;;;;;;;;;;6.02;100.00;99497.31;4843528;29;19950;-66
2022/03/12 08:29:57;;;;;;;;;;;;;;;6.28;100.00;99503.50;4847449;29;19959;-66
2022/03/12 08:32:24;;;;;;;;;;;;;;;6.78;96.21;99505.28;4838941;29;19953;-66
2022/03/12 08:34:52;;;;;;;;;;;;;;;6.87;99.02;99512.34;4845409;29;19979;-66
2022/03/12 08:37:22;;;;;;;;;;;;;;;6.27;99.82;99514.94;4845291;29;19964;-66
2022/03/12 08:39:49;;;;;;;;;;;;;;;6.72;98.05;99517.78;4845838;29;20052;-66
2022/03/12 08:42:17;;;;;;;;;;;;;;;5.88;100.00;99516.22;4843827;29;19965;-67
2022/03/12 08:44:44;;;;;;;;;;;;;;;5.75;100.00;99508.91;4845383;29;19958;-66
2022/03/12 08:47:11;;;;;;;;;;;;;;;6.28;100.00;99513.78;4846095;29;19952;-66
2022/03/12 08:49:39;;;;;;;;;;;;;;;5.87;100.00;99511.81;4843805;29;19957;-66
2022/03/12 08:52:06;;;;;;;;;;;;;;;6.04;100.00;99510.88;4842623;29;19963;-66
2022/03/12 08:54:33;;;;;;;;;;;;;;;6.20;100.00;99509.94;4843832;29;19953;-67
2022/03/12 08:57:02;;;;;;;;;;;;;;;6.05;100.00;99515.28;4844818;29;19959;-66
2022/03/12 08:59:30;;;;;;;;;;;;;;;6.18;100.00;99509.47;4844891;29;19987;-66
2022/03/12 09:01:57;;;;;;;;;;;;;;;6.52;100.00;99511.09;4844954;29;19961;-66
2022/03/12 09:04:25;;;;;;;;;;;;;;;6.74;99.42;99509.91;4832289;29;19975;-66
2022/03/12 09:06:52;;;;;;;;;;;;;;;6.97;100.00;99503.56;4829174;29;19948;-66
2022/03/12 09:09:21;;;;;;;;;;;;;;;6.95;100.00;99513.41;4843636;29;19960;-66
2022/03/12 09:11:48;;;;;;;;;;;;;;;6.59;99.00;99519.69;4829636;29;20260;-66
2022/03/12 09:14:16;;;;;;;;;;;;;;;6.59;100.00;99522.47;4845427;29;20230;-66
2022/03/12 09:16:43;;;;;;;;;;;;;;;6.69;98.63;99515.69;4838177;29;19952;-66
2022/03/12 09:19:10;;;;;;;;;;;;;;;6.69;97.71;99512.91;4842974;29;19974;-66
2022/03/12 09:21:38;;;;;;;;;;;;;;;6.75;95.68;99511.53;4845461;29;19994;-67
2022/03/12 09:24:06;;;;;;;;;;;;;;;6.90;100.00;99520.03;4843406;29;19962;-66
2022/03/12 09:26:34;;;;;;;;;;;;;;;6.95;100.00;99522.59;4836407;29;19987;-66
2022/03/12 09:29:03;;;;;;;;;;;;;;;6.93;95.70;99519.34;4827736;29;20252;-67
2022/03/12 09:31:30;;;;;;;;;;;;;;;7.18;92.87;99526.56;4834031;29;19963;-67
2022/03/12 09:33:58;;;;;;;;;;;;;;;6.91;95.71;99532.78;4842506;29;19953;-66
2022/03/12 09:36:25;;;;;;;;;;;;;;;6.83;97.29;99527.28;4845118;29;19983;-66
2022/03/12 09:38:52;;;;;;;;;;;;;;;6.80;95.85;99530.78;4844276;29;19972;-67
2022/03/12 09:41:20;;;;;;;;;;;;;;;6.78;96.68;99516.38;4844945;29;19962;-67
2022/03/12 09:43:47;;;;;;;;;;;;;;;6.69;98.27;99513.72;4821084;29;19948;-66
2022/03/12 09:46:15;;;;;;;;;;;;;;;6.70;98.45;99509.75;4827129;29;19956;-66
2022/03/12 09:48:42;;;;;;;;;;;;;;;6.96;95.71;99506.72;4826969;29;19955;-66
2022/03/12 09:51:10;;;;;;;;;;;;;;;6.73;97.56;99509.09;4827288;29;19962;-66
2022/03/12 09:53:37;;;;;;;;;;;;;;;6.78;93.84;99511.66;4832332;29;19959;-67
2022/03/12 09:56:05;;;;;;;;;;;;;;;6.90;94.13;99508.09;4837872;29;20220;-66
2022/03/12 09:58:32;;;;;;;;;;;;;;;6.94;93.97;99511.81;4844359;29;19956;-66
2022/03/12 10:01:00;;;;;;;;;;;;;;;7.08;94.55;99498.41;4844266;29;20275;-66
2022/03/12 10:03:30;;;;;;;;;;;;;;;7.23;91.06;99518.00;4828386;29;20368;-66
2022/03/12 10:05:57;;;;;;;;;;;;;;;7.21;93.58;99505.59;4844651;29;20354;-66
2022/03/12 10:08:24;;;;;;;;;;;;;;;7.12;94.31;99489.00;4841064;29;19953;-66
2022/03/12 10:10:52;;;;;;;;;;;;;;;7.31;93.43;99480.09;4842978;29;19961;-66
2022/03/12 10:13:19;;;;;;;;;;;;;;;7.54;93.39;99483.22;4840592;29;19980;-66
2022/03/12 10:15:47;;;;;;;;;;;;;;;7.86;90.44;99482.25;4843618;29;19960;-66
2022/03/12 10:18:15;;;;;;;;;;;;;;;7.59;89.35;99481.00;4838976;29;19956;-66
2022/03/12 10:20:44;;;;;;;;;;;;;;;7.77;87.90;99481.56;4827804;29;19971;-66
2022/03/12 10:23:12;;;;;;;;;;;;;;;8.07;89.35;99482.88;4846326;29;19956;-66
2022/03/12 10:25:45;;;;;;;;;;;;;;;8.22;84.60;99479.34;4844340;29;20334;-66
2022/03/12 10:28:14;;;;;;;;;;;;;;;8.15;84.48;99481.94;4844398;29;21968;-66
2022/03/12 10:30:42;;;;;;;;;;;;;;;8.11;86.25;99483.00;4846613;29;19951;-66
2022/03/12 10:33:19;;;;;;;;;;;;;;;8.34;87.36;99484.09;4843637;29;19959;-66
2022/03/12 10:35:47;;;;;;;;;;;;;;;7.94;80.54;99498.03;4844067;29;19973;-66
2022/03/12 10:38:14;;;;;;;;;;;;;;;7.93;84.04;99488.84;4844071;29;19967;-66
2022/03/12 10:40:42;;;;;;;;;;;;;;;8.17;82.01;99487.13;4843660;29;19979;-66
2022/03/12 10:43:13;;;;;;;;;;;;;;;8.22;79.46;99486.91;4843926;29;19964;-67
2022/03/12 10:45:47;;;;;;;;;;;;;;;8.22;79.39;99493.28;4841904;29;19953;-67
2022/03/12 10:48:20;;;;;;;;;;;;;;;8.38;76.73;99488.63;4842623;29;19955;-66
2022/03/12 10:50:50;;;;;;;;;;;;;;;8.12;74.70;99482.63;4838347;29;19959;-66
2022/03/12 10:53:18;;;;;;;;;;;;;;;8.13;77.40;99483.44;4841416;29;20365;-66
2022/03/12 10:55:46;;;;;;;;;;;;;;;8.37;76.50;99480.59;4847400;29;19960;-67
2022/03/12 10:58:15;;;;;;;;;;;;;;;8.43;75.14;99482.00;4842802;29;19958;-66
2022/03/12 11:00:42;;;;;;;;;;;;;;;8.25;74.81;99475.06;4846967;29;19976;-66
2022/03/12 11:03:13;;;;;;;;;;;;;;;8.03;73.36;99473.63;4831284;29;20327;-66
2022/03/12 11:05:43;;;;;;;;;;;;;;;8.39;72.92;99470.72;4846259;29;19971;-66
2022/03/12 11:08:18;;;;;;;;;;;;;;;8.13;74.20;99472.31;4847527;29;19963;-66
2022/03/12 11:10:50;;;;;;;;;;;;;;;8.11;74.32;99467.09;4841436;29;19954;-66
2022/03/12 11:13:47;;;;;;;;;;;;;;;8.51;76.58;99476.25;4847012;29;19954;-67
2022/03/12 11:16:17;;;;;;;;;;;;;;;8.21;73.07;99463.81;4846616;29;19962;-67
2022/03/12 11:18:50;;;;;;;;;;;;;;;8.44;76.26;99459.31;4846645;29;19944;-66
2022/03/12 11:21:27;;;;;;;;;;;;;;;8.33;73.17;99455.44;4843984;29;20392;-66
2022/03/12 11:23:55;;;;;;;;;;;;;;;8.25;74.49;99461.13;4850467;29;20250;-66
2022/03/12 11:26:24;;;;;;;;;;;;;;;8.35;74.83;99464.25;4848119;29;19955;-66
2022/03/12 11:28:56;;;;;;;;;;;;;;;8.38;77.59;99446.81;4843887;29;20377;-66
2022/03/12 11:31:43;;;;;;;;;;;;;;;8.22;78.54;99450.66;4845374;29;19954;-66
2022/03/12 11:34:30;;;;;;;;;;;;;;;7.94;76.11;99442.31;4846615;29;19964;-66
2022/03/12 11:36:57;;;;;;;;;;;;;;;7.80;76.30;99436.34;4844150;29;20391;-66
2022/03/12 11:39:29;;;;;;;;;;;;;;;8.04;79.31;99433.47;4856184;29;19957;-66
2022/03/12 11:42:06;;;;;;;;;;;;;;;7.97;75.04;99434.06;4846509;29;19990;-66
2022/03/12 11:44:35;;;;;;;;;;;;;;;8.16;77.58;99436.22;4845045;29;19954;-66
2022/03/12 11:47:02;;;;;;;;;;;;;;;8.11;77.30;99421.72;4847103;29;19960;-67
2022/03/12 11:49:30;;;;;;;;;;;;;;;8.29;76.79;99417.50;4849921;29;19960;-67
2022/03/12 11:51:58;;;;;;;;;;;;;;;8.39;73.64;99433.69;4846562;29;19960;-66
2022/03/12 11:54:25;;;;;;;;;;;;;;;8.58;76.27;99425.47;4846391;29;20421;-66
2022/03/12 11:56:53;;;;;;;;;;;;;;;8.82;79.25;99424.50;4845640;29;19970;-66
2022/03/12 11:59:20;;;;;;;;;;;;;;;8.51;71.18;99426.06;4847016;29;19960;-67
2022/03/12 12:02:01;;;;;;;;;;;;;;;8.25;72.27;99428.50;4847136;29;20252;-66
2022/03/12 12:04:31;;;;;;;;;;;;;;;8.31;79.30;99413.19;4844749;29;20245;-67
2022/03/12 12:06:59;;;;;;;;;;;;;;;8.55;76.03;99413.06;4830016;29;19961;-66
2022/03/12 12:09:28;;;;;;;;;;;;;;;8.42;75.12;99421.81;4845735;29;19953;-67
2022/03/12 12:11:55;;;;;;;;;;;;;;;8.29;75.63;99415.50;4843529;29;19959;-66
2022/03/12 12:14:24;;;;;;;;;;;;;;;8.26;74.16;99409.81;4828784;29;19953;-67
2022/03/12 12:16:59;;;;;;;;;;;;;;;8.27;75.62;99411.44;4844057;29;20413;-67
2022/03/12 12:19:27;;;;;;;;;;;;;;;8.11;75.56;99407.78;4840036;29;19953;-67
2022/03/12 12:21:54;;;;;;;;;;;;;;;8.14;72.50;99407.91;4844466;29;20258;-67
2022/03/12 12:24:29;;;;;;;;;;;;;;;8.21;74.66;99405.31;4842180;29;19949;-67
2022/03/12 12:26:58;;;;;;;;;;;;;;;8.17;75.18;99398.81;4843680;29;19952;-67
2022/03/12 12:29:43;;;;;;;;;;;;;;;8.46;75.12;99386.50;4845612;29;19988;-67
2022/03/12 12:32:12;;;;;;;;;;;;;;;8.47;75.76;99396.47;4844354;29;19952;-67
2022/03/12 12:35:18;;;;;;;;;;;;;;;8.22;74.59;99401.34;4840371;29;19980;-67
2022/03/12 12:37:48;;;;;;;;;;;;;;;8.14;72.79;99399.53;4788852;30;19957;-67
2022/03/12 12:40:21;;;;;;;;;;;;;;;7.84;73.85;99401.84;4780760;30;20006;-66
2022/03/12 12:42:49;;;;;;;;;;;;;;;7.72;74.96;99390.75;4809364;29;19969;-66
2022/03/12 12:45:19;;;;;;;;;;;;;;;7.73;75.62;99389.56;4846218;29;19953;-66
2022/03/12 12:47:46;;;;;;;;;;;;;;;7.70;76.55;99393.06;4843844;29;19956;-66
2022/03/12 12:50:19;;;;;;;;;;;;;;;7.94;74.44;99384.66;4845516;29;19949;-67
2022/03/12 12:53:07;;;;;;;;;;;;;;;8.03;75.28;99373.34;4844972;29;19963;-66
2022/03/12 12:55:35;;;;;;;;;;;;;;;8.06;75.19;99369.03;4845204;29;19946;-66
2022/03/12 12:58:03;;;;;;;;;;;;;;;8.02;75.42;99365.34;4846013;29;19965;-66
2022/03/12 13:00:30;;;;;;;;;;;;;;;8.23;75.14;99372.31;4844945;29;20701;-67
2022/03/12 13:02:59;;;;;;;;;;;;;;;8.15;75.02;99362.13;4845899;29;19961;-67
2022/03/12 13:05:47;;;;;;;;;;;;;;;8.12;75.02;99354.47;4845257;29;19958;-66
2022/03/12 13:08:16;;;;;;;;;;;;;;;8.35;76.65;99363.91;4844849;29;19952;-67
2022/03/12 13:10:44;;;;;;;;;;;;;;;7.93;75.93;99348.78;4844954;29;19958;-66
2022/03/12 13:13:13;;;;;;;;;;;;;;;8.05;76.79;99339.53;4845463;29;19969;-66
2022/03/12 13:19:28;;;;;;;;;;;;;;;8.43;76.30;99342.63;4827597;29;19948;-67
2022/03/12 13:21:58;;;;;;;;;;;;;;;8.52;76.25;99341.28;4839634;29;20363;-66
2022/03/12 13:24:30;;;;;;;;;;;;;;;8.78;78.11;99328.78;4829035;29;19956;-67
2022/03/12 13:27:01;;;;;;;;;;;;;;;8.65;71.73;99330.84;4844352;29;19952;-66
2022/03/12 13:29:29;;;;;;;;;;;;;;;8.37;72.47;99330.94;4845086;29;19952;-66
2022/03/12 13:31:57;;;;;;;;;;;;;;;8.25;71.58;99333.75;4845064;29;20314;-67
2022/03/12 13:34:25;;;;;;;;;;;;;;;8.19;74.67;99320.47;4850069;29;20224;-67
2022/03/12 13:36:54;;;;;;;;;;;;;;;8.43;73.13;99323.94;4829965;29;19958;-67
2022/03/12 13:39:24;;;;;;;;;;;;;;;8.48;74.50;99309.72;4834882;29;19954;-66
2022/03/12 13:41:51;;;;;;;;;;;;;;;8.33;72.72;99327.25;4842831;29;20284;-67
2022/03/12 13:44:20;;;;;;;;;;;;;;;8.37;77.45;99317.00;4845032;29;19957;-66
2022/03/12 13:46:50;;;;;;;;;;;;;;;8.47;72.46;99312.84;4844756;29;19961;-67
2022/03/12 13:49:20;;;;;;;;;;;;;;;8.58;71.03;99305.59;4827411;29;19948;-67
2022/03/12 13:51:54;;;;;;;;;;;;;;;8.46;72.47;99300.09;4843112;29;19964;-66
2022/03/12 13:54:25;;;;;;;;;;;;;;;8.41;74.04;99305.94;4845165;29;20250;-67
2022/03/12 13:56:53;;;;;;;;;;;;;;;8.21;74.38;99313.38;4845122;29;19954;-67
2022/03/12 13:59:24;;;;;;;;;;;;;;;8.28;75.07;99310.78;4841170;29;20318;-67
2022/03/12 14:01:52;;;;;;;;;;;;;;;8.24;75.44;99300.69;4844931;29;19985;-66
2022/03/12 14:04:21;;;;;;;;;;;;;;;8.30;75.42;99308.44;4844031;29;19947;-67
2022/03/12 14:07:12;;;;;;;;;;;;;;;8.22;74.82;99298.25;4844866;29;20251;-67
2022/03/12 14:09:40;;;;;;;;;;;;;;;8.30;75.18;99297.31;4827890;29;19960;-67
2022/03/12 14:12:07;;;;;;;;;;;;;;;8.57;73.31;99293.63;4844785;29;19948;-66
2022/03/12 14:14:35;;;;;;;;;;;;;;;8.26;74.09;99290.84;4843955;29;19957;-67
2022/03/12 14:17:04;;;;;;;;;;;;;;;8.10;73.78;99301.09;4832109;29;19950;-66
2022/03/12 14:19:32;;;;;;;;;;;;;;;8.08;72.80;99294.28;4840442;29;19953;-66
2022/03/12 14:22:05;;;;;;;;;;;;;;;8.23;74.12;99302.66;4844468;29;19975;-66
2022/03/12 14:24:40;;;;;;;;;;;;;;;8.21;73.46;99304.19;4844115;29;19965;-67
2022/03/12 14:27:08;;;;;;;;;;;;;;;8.19;73.06;99296.16;4844238;29;19954;-67
2022/03/12 14:29:39;;;;;;;;;;;;;;;8.35;74.02;99288.69;4844428;29;20376;-66
2022/03/12 14:32:09;;;;;;;;;;;;;;;8.41;73.09;99303.16;4844537;29;19957;-67
2022/03/12 14:34:38;;;;;;;;;;;;;;;8.23;70.35;99304.63;4843125;29;19960;-67
2022/03/12 14:37:07;;;;;;;;;;;;;;;8.10;70.15;99301.09;4854640;29;19953;-67
2022/03/12 14:39:35;;;;;;;;;;;;;;;8.01;70.95;99303.25;4844073;29;19948;-66
2022/03/12 14:42:04;;;;;;;;;;;;;;;8.01;69.49;99299.66;4844379;29;19974;-67
2022/03/12 14:44:33;;;;;;;;;;;;;;;7.99;70.61;99294.47;4842214;29;19959;-66
2022/03/12 14:47:00;;;;;;;;;;;;;;;8.09;71.30;99293.13;4835670;29;19966;-66
2022/03/12 14:49:28;;;;;;;;;;;;;;;8.04;71.16;99291.41;4831626;29;19961;-66
2022/03/12 14:51:58;;;;;;;;;;;;;;;8.27;68.96;99295.22;4844322;29;19963;-66
2022/03/12 14:54:28;;;;;;;;;;;;;;;8.18;70.61;99291.78;4844375;29;19956;-66
2022/03/12 14:56:57;;;;;;;;;;;;;;;8.08;70.25;99294.28;4844476;29;19956;-66
2022/03/12 14:59:28;;;;;;;;;;;;;;;8.10;69.91;99289.97;4843380;29;19953;-67
2022/03/12 15:02:10;;;;;;;;;;;;;;;8.15;69.63;99288.88;4841775;29;19980;-67
2022/03/12 15:04:45;;;;;;;;;;;;;;;8.07;69.16;99284.31;4843695;29;19957;-67
2022/03/12 15:07:15;;;;;;;;;;;;;;;8.11;70.01;99288.81;4844484;29;19955;-66
2022/03/12 15:10:01;;;;;;;;;;;;;;;7.92;70.33;99283.91;4842174;29;20373;-66
2022/03/12 15:12:31;;;;;;;;;;;;;;;7.94;70.18;99289.16;4834383;29;19953;-67
2022/03/12 15:15:00;;;;;;;;;;;;;;;7.90;70.06;99289.03;4843641;29;19964;-67
2022/03/12 15:17:29;;;;;;;;;;;;;;;7.88;69.76;99293.34;4844408;29;19957;-66
2022/03/12 15:20:04;;;;;;;;;;;;;;;7.69;70.88;99285.66;4827818;29;20334;-66
2022/03/12 15:22:32;;;;;;;;;;;;;;;7.88;70.87;99298.91;4844240;29;20046;-66
2022/03/12 15:25:02;;;;;;;;;;;;;;;7.94;70.09;99292.75;4844193;29;19953;-66
2022/03/12 15:27:30;;;;;;;;;;;;;;;7.91;71.04;99284.28;4828283;29;19944;-66
2022/03/12 15:30:01;;;;;;;;;;;;;;;7.94;74.40;99292.75;4844142;29;19956;-66
2022/03/12 15:32:31;;;;;;;;;;;;;;;7.93;71.40;99288.31;4844144;29;20244;-66
2022/03/12 15:34:59;;;;;;;;;;;;;;;7.93;70.43;99284.72;4843960;29;19982;-66
2022/03/12 15:37:30;;;;;;;;;;;;;;;7.83;72.20;99285.25;4843932;29;19966;-67
2022/03/12 15:40:05;;;;;;;;;;;;;;;7.90;72.74;99282.66;4830619;29;20005;-67
2022/03/12 15:42:35;;;;;;;;;;;;;;;8.00;72.68;99284.09;4846913;29;19978;-67
2022/03/12 15:45:03;;;;;;;;;;;;;;;7.93;71.94;99285.53;4833178;29;19965;-66
2022/03/12 15:47:31;;;;;;;;;;;;;;;7.97;71.35;99284.84;4846860;29;19959;-66
2022/03/12 15:49:58;;;;;;;;;;;;;;;7.87;71.32;99275.81;4845751;29;19960;-66
2022/03/12 15:52:26;;;;;;;;;;;;;;;7.94;70.20;99275.22;4844607;29;19953;-66
2022/03/12 15:54:53;;;;;;;;;;;;;;;7.89;71.69;99270.72;4845452;29;20225;-66
2022/03/12 15:57:21;;;;;;;;;;;;;;;7.78;72.82;99277.97;4844640;29;20271;-66
2022/03/12 15:59:49;;;;;;;;;;;;;;;7.72;73.76;99279.41;4846727;29;19950;-66
2022/03/12 16:02:17;;;;;;;;;;;;;;;7.69;74.73;99280.09;4846485;29;19971;-66
2022/03/12 16:04:45;;;;;;;;;;;;;;;7.79;75.37;99274.03;4845243;29;19954;-67
2022/03/12 16:07:13;;;;;;;;;;;;;;;7.67;74.63;99276.88;4843750;29;19971;-66
2022/03/12 16:09:40;;;;;;;;;;;;;;;7.62;75.60;99274.34;4845971;29;19961;-66
2022/03/12 16:12:08;;;;;;;;;;;;;;;7.51;78.00;99273.22;4847032;29;19962;-66
2022/03/12 16:14:41;;;;;;;;;;;;;;;7.51;78.91;99266.81;4829375;29;20245;-66
2022/03/12 16:17:12;;;;;;;;;;;;;;;7.59;79.70;99263.09;4842191;29;19957;-66
2022/03/12 16:19:42;;;;;;;;;;;;;;;7.45;81.05;99271.03;4844796;29;19960;-66
2022/03/12 16:22:11;;;;;;;;;;;;;;;7.40;82.07;99262.94;4845606;29;19977;-67
2022/03/12 16:24:38;;;;;;;;;;;;;;;7.39;82.76;99266.88;4830577;29;20346;-67
2022/03/12 16:27:06;;;;;;;;;;;;;;;7.41;83.04;99264.56;4815485;29;20702;-66
2022/03/12 16:29:33;;;;;;;;;;;;;;;7.29;83.48;99263.44;4830124;29;19958;-66
2022/03/12 16:32:01;;;;;;;;;;;;;;;7.15;84.02;99271.38;4846998;29;19951;-66
2022/03/12 16:34:28;;;;;;;;;;;;;;;7.17;84.55;99271.00;4845081;29;20041;-66
2022/03/12 16:36:56;;;;;;;;;;;;;;;7.10;85.18;99271.59;4845505;29;20342;-66
2022/03/12 16:39:23;;;;;;;;;;;;;;;7.06;84.94;99276.25;4845249;29;19963;-66
2022/03/12 16:41:51;;;;;;;;;;;;;;;7.11;85.07;99276.03;4845584;29;19971;-66
2022/03/12 16:44:22;;;;;;;;;;;;;;;7.01;85.56;99275.69;4846058;29;19956;-66
2022/03/12 16:46:50;;;;;;;;;;;;;;;6.94;85.75;99273.50;4846144;29;19977;-66
2022/03/12 16:49:18;;;;;;;;;;;;;;;6.97;85.75;99272.78;4845810;29;19961;-68
2022/03/12 16:51:45;;;;;;;;;;;;;;;6.86;86.55;99271.66;4842513;29;19989;-68
2022/03/12 16:54:13;;;;;;;;;;;;;;;6.89;87.41;99279.31;4845876;29;19953;-66
2022/03/12 16:56:40;;;;;;;;;;;;;;;6.80;87.61;99269.47;4843847;29;20327;-66
2022/03/12 16:59:08;;;;;;;;;;;;;;;6.72;88.12;99267.63;4845397;29;19953;-66
2022/03/12 17:01:35;;;;;;;;;;;;;;;6.76;87.48;99268.53;4843469;29;19964;-66
2022/03/12 17:04:03;;;;;;;;;;;;;;;6.67;87.71;99274.22;4845241;29;19959;-67
2022/03/12 17:06:32;;;;;;;;;;;;;;;6.63;87.86;99271.31;4843778;29;19956;-67
2022/03/12 17:09:00;;;;;;;;;;;;;;;6.65;88.01;99279.34;4846514;29;19967;-67
2022/03/12 17:11:30;;;;;;;;;;;;;;;6.55;88.52;99280.59;4848215;29;19946;-66
2022/03/12 17:14:01;;;;;;;;;;;;;;;6.55;89.00;99275.03;4844939;29;20265;-66
2022/03/12 17:16:30;;;;;;;;;;;;;;;6.49;88.91;99281.16;4846197;29;19991;-66
2022/03/12 17:18:58;;;;;;;;;;;;;;;6.49;89.26;99281.16;4844821;29;19960;-66
2022/03/12 17:21:26;;;;;;;;;;;;;;;6.48;89.23;99280.34;4843337;29;20283;-66
2022/03/12 17:23:55;;;;;;;;;;;;;;;6.37;90.21;99275.63;4845143;29;19970;-67
2022/03/12 17:26:26;;;;;;;;;;;;;;;6.39;90.69;99281.63;4838983;29;19964;-66
2022/03/12 17:28:54;;;;;;;;;;;;;;;6.33;90.45;99274.69;4845217;29;20008;-66
2022/03/12 17:31:25;;;;;;;;;;;;;;;6.37;90.62;99290.31;4845004;29;19954;-66
2022/03/12 17:33:53;;;;;;;;;;;;;;;6.32;90.94;99285.00;4843641;29;19962;-66
2022/03/12 17:36:22;;;;;;;;;;;;;;;6.27;90.99;99288.00;4844350;29;19973;-66
2022/03/12 17:38:50;;;;;;;;;;;;;;;6.21;91.40;99288.56;4841920;29;19956;-66
2022/03/12 17:41:17;;;;;;;;;;;;;;;6.17;92.17;99282.06;4843972;29;19959;-66
2022/03/12 17:43:49;;;;;;;;;;;;;;;6.11;92.38;99284.28;4843225;29;20367;-66
2022/03/12 17:46:17;;;;;;;;;;;;;;;6.04;93.26;99284.00;4845406;29;19950;-66
2022/03/12 17:48:45;;;;;;;;;;;;;;;5.97;94.05;99301.25;4842929;29;19960;-68
2022/03/12 17:51:22;;;;;;;;;;;;;;;5.98;94.43;99304.81;4843611;29;19961;-68
2022/03/12 17:53:49;;;;;;;;;;;;;;;5.95;94.55;99308.28;4844494;29;20387;-68
2022/03/12 17:56:17;;;;;;;;;;;;;;;5.90;94.86;99312.09;4843499;29;19961;-68
2022/03/12 17:58:54;;;;;;;;;;;;;;;5.91;94.44;99313.72;4829089;29;20250;-68
2022/03/12 18:01:23;;;;;;;;;;;;;;;5.82;95.06;99307.41;4844289;29;20347;-68
2022/03/12 18:03:54;;;;;;;;;;;;;;;5.78;94.52;99312.03;4840581;29;19973;-68
2022/03/12 18:06:22;;;;;;;;;;;;;;;5.86;94.77;99315.91;4843926;29;19960;-68
2022/03/12 18:08:50;;;;;;;;;;;;;;;5.83;94.62;99309.03;4843649;29;20243;-68
2022/03/12 18:11:21;;;;;;;;;;;;;;;5.79;94.42;99308.09;4841018;29;20266;-68
2022/03/12 18:13:52;;;;;;;;;;;;;;;5.80;94.54;99318.03;4843024;29;19949;-67
2022/03/12 18:16:20;;;;;;;;;;;;;;;5.68;95.98;99319.94;4842969;29;19956;-68
2022/03/12 18:18:49;;;;;;;;;;;;;;;5.76;95.33;99311.56;4826643;29;20372;-69
2022/03/12 18:21:17;;;;;;;;;;;;;;;5.73;95.61;99319.75;4837897;29;20341;-67
2022/03/12 18:23:47;;;;;;;;;;;;;;;5.60;95.91;99313.34;4823963;29;19978;-66
2022/03/12 18:26:14;;;;;;;;;;;;;;;5.54;96.28;99316.66;4843223;29;19953;-66
2022/03/12 18:28:42;;;;;;;;;;;;;;;5.47;96.73;99308.09;4841656;29;20237;-66
2022/03/12 18:31:10;;;;;;;;;;;;;;;5.51;97.33;99314.56;4843334;29;19972;-66
2022/03/12 18:33:40;;;;;;;;;;;;;;;5.47;97.34;99314.44;4841803;29;20326;-67
2022/03/12 18:36:08;;;;;;;;;;;;;;;5.44;97.96;99311.53;4841624;29;20004;-66
2022/03/12 18:38:36;;;;;;;;;;;;;;;5.31;98.69;99314.25;4843136;29;19956;-66
2022/03/12 18:41:05;;;;;;;;;;;;;;;5.29;99.46;99313.78;4841154;29;19951;-66
2022/03/12 18:43:32;;;;;;;;;;;;;;;5.31;100.00;99313.41;4841666;29;19967;-66
2022/03/12 18:45:59;;;;;;;;;;;;;;;5.18;100.00;99315.31;4840160;29;19960;-66
2022/03/12 18:48:30;;;;;;;;;;;;;;;5.05;100.00;99313.63;4840680;29;19956;-67
2022/03/12 18:50:58;;;;;;;;;;;;;;;5.05;100.00;99318.34;4841369;29;20222;-66
2022/03/12 18:53:26;;;;;;;;;;;;;;;5.07;100.00;99313.28;4842266;29;19959;-66
2022/03/12 18:55:54;;;;;;;;;;;;;;;5.06;100.00;99317.22;4841519;29;20257;-66
2022/03/12 18:58:24;;;;;;;;;;;;;;;4.99;100.00;99323.28;4843743;29;19975;-67
2022/03/12 19:00:52;;;;;;;;;;;;;;;4.98;100.00;99326.41;4843242;29;20262;-66
2022/03/12 19:03:20;;;;;;;;;;;;;;;4.92;100.00;99327.72;4842798;29;19977;-67
2022/03/12 19:05:48;;;;;;;;;;;;;;;4.87;100.00;99331.50;4842083;29;20273;-66
2022/03/12 19:08:16;;;;;;;;;;;;;;;4.83;100.00;99332.53;4842674;29;19966;-66
2022/03/12 19:10:44;;;;;;;;;;;;;;;4.83;100.00;99335.28;4840328;29;19950;-66
2022/03/12 19:13:11;;;;;;;;;;;;;;;4.80;100.00;99335.94;4840965;29;20039;-66
2022/03/12 19:15:39;;;;;;;;;;;;;;;4.74;100.00;99342.84;4846399;29;20339;-66
2022/03/12 19:18:08;;;;;;;;;;;;;;;4.70;100.00;99344.63;4846971;29;19964;-66
2022/03/12 19:20:37;;;;;;;;;;;;;;;4.62;100.00;99344.34;4845843;29;19954;-66
2022/03/12 19:23:04;;;;;;;;;;;;;;;4.51;100.00;99340.34;4845798;29;19965;-67
2022/03/12 19:25:32;;;;;;;;;;;;;;;4.50;100.00;99346.19;4849244;29;19965;-66
2022/03/12 19:28:00;;;;;;;;;;;;;;;4.46;100.00;99346.06;4847170;29;20283;-66
2022/03/12 19:30:28;;;;;;;;;;;;;;;4.50;100.00;99346.19;4846517;29;20222;-67
2022/03/12 19:32:55;;;;;;;;;;;;;;;4.37;100.00;99352.78;4838110;29;19958;-66
2022/03/12 19:35:23;;;;;;;;;;;;;;;4.42;100.00;99345.13;4845771;29;19970;-66
2022/03/12 19:37:51;;;;;;;;;;;;;;;4.29;100.00;99335.06;4830913;29;20426;-66
2022/03/12 19:40:20;;;;;;;;;;;;;;;4.23;100.00;99341.91;4844163;29;19975;-67
2022/03/12 19:42:47;;;;;;;;;;;;;;;4.30;100.00;99331.16;4841509;29;19964;-67
2022/03/12 19:45:17;;;;;;;;;;;;;;;4.24;100.00;99339.97;4846258;29;19950;-67